sensor_id;sensor_type;location;lat;lon;timestamp;P1;durP1;ratioP1;P2;durP2;ratioP2
11747;SDS011;5931;48.832;9.072;2023-05-10T00:00:57;1.37;;;1.00;;
11747;SDS011;5931;48.832;9.072;2023-05-10T00:03:22;1.13;;;0.80;;
11747;SDS011;5931;48.832;9.072;2023-05-10T00:05:48;1.10;;;0.90;;
11747;SDS011;5931;48.832;9.072;2023-05-10T00:08:14;1.10;;;0.90;;
11747;SDS011;5931;48.832;9.072;2023-05-10T00:10:39;1.10;;;0.90;;
11747;SDS011;5931;48.832;9.072;2023-05-10T00:13:06;1.40;;;0.90;;
11747;SDS011;5931;48.832;9.072;2023-05-10T00:15:31;1.00;;;0.80;;
11747;SDS011;5931;48.832;9.072;2023-05-10T00:17:57;1.00;;;0.80;;
11747;SDS011;5931;48.832;9.072;2023-05-10T00:20:23;1.07;;;0.90;;
11747;SDS011;5931;48.832;9.072;2023-05-10T00:22:48;1.50;;;0.90;;
11747;SDS011;5931;48.832;9.072;2023-05-10T00:25:14;1.00;;;0.80;;
11747;SDS011;5931;48.832;9.072;2023-05-10T00:27:39;1.70;;;1.00;;
11747;SDS011;5931;48.832;9.072;2023-05-10T00:30:05;1.00;;;0.70;;
11747;SDS011;5931;48.832;9.072;2023-05-10T00:32:31;1.73;;;1.07;;
11747;SDS011;5931;48.832;9.072;2023-05-10T00:34:57;1.10;;;0.90;;
11747;SDS011;5931;48.832;9.072;2023-05-10T00:37:23;1.10;;;0.70;;
11747;SDS011;5931;48.832;9.072;2023-05-10T00:39:49;1.00;;;0.80;;
11747;SDS011;5931;48.832;9.072;2023-05-10T00:42:14;1.00;;;0.70;;
11747;SDS011;5931;48.832;9.072;2023-05-10T00:44:40;1.37;;;1.00;;
11747;SDS011;5931;48.832;9.072;2023-05-10T00:47:06;1.20;;;0.90;;
11747;SDS011;5931;48.832;9.072;2023-05-10T00:49:34;1.10;;;0.90;;
11747;SDS011;5931;48.832;9.072;2023-05-10T00:52:00;1.50;;;0.83;;
11747;SDS011;5931;48.832;9.072;2023-05-10T00:54:27;1.00;;;0.90;;
11747;SDS011;5931;48.832;9.072;2023-05-10T00:56:53;1.10;;;0.80;;
11747;SDS011;5931;48.832;9.072;2023-05-10T00:59:19;1.30;;;0.93;;
11747;SDS011;5931;48.832;9.072;2023-05-10T01:01:45;1.10;;;0.90;;
11747;SDS011;5931;48.832;9.072;2023-05-10T01:04:12;1.20;;;1.00;;
11747;SDS011;5931;48.832;9.072;2023-05-10T01:06:42;1.20;;;0.93;;
11747;SDS011;5931;48.832;9.072;2023-05-10T01:09:07;2.93;;;1.07;;
11747;SDS011;5931;48.832;9.072;2023-05-10T01:11:34;1.63;;;1.10;;
11747;SDS011;5931;48.832;9.072;2023-05-10T01:14:01;1.10;;;0.87;;
11747;SDS011;5931;48.832;9.072;2023-05-10T01:16:28;1.10;;;1.00;;
11747;SDS011;5931;48.832;9.072;2023-05-10T01:18:56;1.10;;;0.90;;
11747;SDS011;5931;48.832;9.072;2023-05-10T01:37:20;1.10;;;0.90;;
11747;SDS011;5931;48.832;9.072;2023-05-10T01:39:55;2.27;;;1.23;;
11747;SDS011;5931;48.832;9.072;2023-05-10T01:42:29;1.23;;;1.10;;
11747;SDS011;5931;48.832;9.072;2023-05-10T01:45:16;1.40;;;1.30;;
11747;SDS011;5931;48.832;9.072;2023-05-10T01:47:53;1.30;;;1.00;;
11747;SDS011;5931;48.832;9.072;2023-05-10T01:50:27;1.20;;;1.00;;
11747;SDS011;5931;48.832;9.072;2023-05-10T01:52:56;1.60;;;1.40;;
11747;SDS011;5931;48.832;9.072;2023-05-10T01:55:25;1.30;;;1.10;;
11747;SDS011;5931;48.832;9.072;2023-05-10T01:58:07;1.63;;;1.10;;
11747;SDS011;5931;48.832;9.072;2023-05-10T02:00:35;1.20;;;0.90;;
11747;SDS011;5931;48.832;9.072;2023-05-10T02:03:05;1.20;;;1.07;;
11747;SDS011;5931;48.832;9.072;2023-05-10T02:05:32;1.30;;;1.00;;
11747;SDS011;5931;48.832;9.072;2023-05-10T02:07:59;8.03;;;1.20;;
11747;SDS011;5931;48.832;9.072;2023-05-10T02:10:27;1.53;;;1.17;;
11747;SDS011;5931;48.832;9.072;2023-05-10T02:13:02;1.83;;;1.33;;
11747;SDS011;5931;48.832;9.072;2023-05-10T02:15:29;1.93;;;1.23;;
11747;SDS011;5931;48.832;9.072;2023-05-10T02:17:56;1.43;;;1.23;;
11747;SDS011;5931;48.832;9.072;2023-05-10T02:20:23;2.23;;;1.50;;
11747;SDS011;5931;48.832;9.072;2023-05-10T02:22:50;1.57;;;1.47;;
11747;SDS011;5931;48.832;9.072;2023-05-10T02:25:19;1.73;;;1.17;;
11747;SDS011;5931;48.832;9.072;2023-05-10T02:27:46;1.90;;;1.20;;
11747;SDS011;5931;48.832;9.072;2023-05-10T02:30:13;1.20;;;1.10;;
11747;SDS011;5931;48.832;9.072;2023-05-10T02:32:39;1.40;;;1.20;;
11747;SDS011;5931;48.832;9.072;2023-05-10T02:35:06;1.73;;;1.37;;
11747;SDS011;5931;48.832;9.072;2023-05-10T02:37:34;1.60;;;1.50;;
11747;SDS011;5931;48.832;9.072;2023-05-10T02:40:02;2.50;;;1.60;;
11747;SDS011;5931;48.832;9.072;2023-05-10T02:42:31;1.83;;;1.47;;
11747;SDS011;5931;48.832;9.072;2023-05-10T02:45:00;2.43;;;1.60;;
11747;SDS011;5931;48.832;9.072;2023-05-10T02:47:29;2.10;;;1.70;;
11747;SDS011;5931;48.832;9.072;2023-05-10T02:49:54;1.40;;;1.30;;
11747;SDS011;5931;48.832;9.072;2023-05-10T02:52:25;1.67;;;1.50;;
11747;SDS011;5931;48.832;9.072;2023-05-10T02:54:55;2.80;;;1.40;;
11747;SDS011;5931;48.832;9.072;2023-05-10T02:57:25;1.90;;;1.60;;
11747;SDS011;5931;48.832;9.072;2023-05-10T02:59:53;1.60;;;1.50;;
11747;SDS011;5931;48.832;9.072;2023-05-10T03:02:20;2.53;;;1.47;;
11747;SDS011;5931;48.832;9.072;2023-05-10T03:04:46;1.67;;;1.30;;
11747;SDS011;5931;48.832;9.072;2023-05-10T03:07:11;2.90;;;1.40;;
11747;SDS011;5931;48.832;9.072;2023-05-10T03:09:39;1.50;;;1.20;;
11747;SDS011;5931;48.832;9.072;2023-05-10T03:19:51;1.47;;;1.20;;
11747;SDS011;5931;48.832;9.072;2023-05-10T03:22:44;1.43;;;1.27;;
11747;SDS011;5931;48.832;9.072;2023-05-10T03:25:14;2.17;;;1.57;;
11747;SDS011;5931;48.832;9.072;2023-05-10T03:27:42;1.40;;;1.20;;
11747;SDS011;5931;48.832;9.072;2023-05-10T03:30:12;2.20;;;1.47;;
11747;SDS011;5931;48.832;9.072;2023-05-10T03:32:38;2.37;;;1.50;;
11747;SDS011;5931;48.832;9.072;2023-05-10T03:35:08;1.87;;;1.53;;
11747;SDS011;5931;48.832;9.072;2023-05-10T03:37:35;1.90;;;1.30;;
11747;SDS011;5931;48.832;9.072;2023-05-10T03:40:01;1.93;;;1.50;;
11747;SDS011;5931;48.832;9.072;2023-05-10T03:42:29;2.07;;;1.70;;
11747;SDS011;5931;48.832;9.072;2023-05-10T03:44:55;1.83;;;1.40;;
11747;SDS011;5931;48.832;9.072;2023-05-10T03:47:20;1.70;;;1.30;;
11747;SDS011;5931;48.832;9.072;2023-05-10T03:49:46;2.17;;;1.47;;
11747;SDS011;5931;48.832;9.072;2023-05-10T03:52:12;1.80;;;1.50;;
11747;SDS011;5931;48.832;9.072;2023-05-10T03:54:38;2.60;;;1.80;;
11747;SDS011;5931;48.832;9.072;2023-05-10T03:57:04;1.77;;;1.47;;
11747;SDS011;5931;48.832;9.072;2023-05-10T03:59:30;3.10;;;1.90;;
11747;SDS011;5931;48.832;9.072;2023-05-10T04:01:56;3.17;;;1.90;;
11747;SDS011;5931;48.832;9.072;2023-05-10T04:04:22;2.20;;;2.00;;
11747;SDS011;5931;48.832;9.072;2023-05-10T04:06:49;2.77;;;2.13;;
11747;SDS011;5931;48.832;9.072;2023-05-10T04:09:15;4.50;;;2.03;;
11747;SDS011;5931;48.832;9.072;2023-05-10T04:11:41;2.20;;;1.50;;
11747;SDS011;5931;48.832;9.072;2023-05-10T04:14:07;1.77;;;1.60;;
11747;SDS011;5931;48.832;9.072;2023-05-10T04:16:32;2.80;;;1.53;;
11747;SDS011;5931;48.832;9.072;2023-05-10T04:18:58;1.80;;;1.50;;
11747;SDS011;5931;48.832;9.072;2023-05-10T04:21:24;1.63;;;1.53;;
11747;SDS011;5931;48.832;9.072;2023-05-10T04:23:50;2.30;;;1.23;;
11747;SDS011;5931;48.832;9.072;2023-05-10T04:26:16;1.63;;;1.53;;
11747;SDS011;5931;48.832;9.072;2023-05-10T04:28:41;2.10;;;1.80;;
11747;SDS011;5931;48.832;9.072;2023-05-10T04:31:08;2.87;;;1.20;;
11747;SDS011;5931;48.832;9.072;2023-05-10T04:33:35;3.70;;;2.03;;
11747;SDS011;5931;48.832;9.072;2023-05-10T04:36:01;2.37;;;2.00;;
11747;SDS011;5931;48.832;9.072;2023-05-10T04:38:27;2.30;;;1.80;;
11747;SDS011;5931;48.832;9.072;2023-05-10T04:40:53;2.43;;;1.77;;
11747;SDS011;5931;48.832;9.072;2023-05-10T04:43:19;2.50;;;1.77;;
11747;SDS011;5931;48.832;9.072;2023-05-10T04:45:45;1.60;;;1.30;;
11747;SDS011;5931;48.832;9.072;2023-05-10T04:48:11;1.80;;;1.53;;
11747;SDS011;5931;48.832;9.072;2023-05-10T04:50:37;3.20;;;1.60;;
11747;SDS011;5931;48.832;9.072;2023-05-10T04:53:03;1.90;;;1.50;;
11747;SDS011;5931;48.832;9.072;2023-05-10T04:55:29;1.40;;;1.30;;
11747;SDS011;5931;48.832;9.072;2023-05-10T04:57:55;2.40;;;1.53;;
11747;SDS011;5931;48.832;9.072;2023-05-10T05:00:22;1.93;;;1.50;;
11747;SDS011;5931;48.832;9.072;2023-05-10T05:02:48;1.80;;;1.43;;
11747;SDS011;5931;48.832;9.072;2023-05-10T05:05:14;1.63;;;1.50;;
11747;SDS011;5931;48.832;9.072;2023-05-10T05:07:40;5.53;;;1.50;;
11747;SDS011;5931;48.832;9.072;2023-05-10T05:10:06;2.30;;;1.20;;
11747;SDS011;5931;48.832;9.072;2023-05-10T05:12:33;2.53;;;1.30;;
11747;SDS011;5931;48.832;9.072;2023-05-10T05:14:59;1.97;;;1.40;;
11747;SDS011;5931;48.832;9.072;2023-05-10T05:17:25;1.50;;;1.40;;
11747;SDS011;5931;48.832;9.072;2023-05-10T05:19:51;1.60;;;1.33;;
11747;SDS011;5931;48.832;9.072;2023-05-10T05:22:17;1.20;;;1.10;;
11747;SDS011;5931;48.832;9.072;2023-05-10T05:24:44;3.30;;;1.40;;
11747;SDS011;5931;48.832;9.072;2023-05-10T05:27:10;1.57;;;1.47;;
11747;SDS011;5931;48.832;9.072;2023-05-10T05:29:36;1.77;;;1.30;;
11747;SDS011;5931;48.832;9.072;2023-05-10T05:32:02;1.30;;;1.00;;
11747;SDS011;5931;48.832;9.072;2023-05-10T05:34:28;1.70;;;1.53;;
11747;SDS011;5931;48.832;9.072;2023-05-10T05:36:54;1.80;;;1.47;;
11747;SDS011;5931;48.832;9.072;2023-05-10T05:39:19;2.60;;;1.80;;
11747;SDS011;5931;48.832;9.072;2023-05-10T05:41:45;1.63;;;1.50;;
11747;SDS011;5931;48.832;9.072;2023-05-10T05:44:11;2.43;;;1.53;;
11747;SDS011;5931;48.832;9.072;2023-05-10T05:46:37;3.53;;;2.10;;
11747;SDS011;5931;48.832;9.072;2023-05-10T05:49:03;2.30;;;1.50;;
11747;SDS011;5931;48.832;9.072;2023-05-10T05:51:28;1.67;;;1.30;;
11747;SDS011;5931;48.832;9.072;2023-05-10T05:53:54;8.33;;;1.57;;
11747;SDS011;5931;48.832;9.072;2023-05-10T05:56:20;1.80;;;1.60;;
11747;SDS011;5931;48.832;9.072;2023-05-10T05:58:49;1.73;;;1.50;;
11747;SDS011;5931;48.832;9.072;2023-05-10T06:01:15;1.60;;;1.50;;
11747;SDS011;5931;48.832;9.072;2023-05-10T06:03:41;1.90;;;1.70;;
11747;SDS011;5931;48.832;9.072;2023-05-10T06:06:07;2.57;;;1.90;;
11747;SDS011;5931;48.832;9.072;2023-05-10T06:08:32;1.70;;;1.60;;
11747;SDS011;5931;48.832;9.072;2023-05-10T06:10:59;1.60;;;1.50;;
11747;SDS011;5931;48.832;9.072;2023-05-10T06:13:25;1.77;;;1.60;;
11747;SDS011;5931;48.832;9.072;2023-05-10T06:15:57;1.93;;;1.50;;
11747;SDS011;5931;48.832;9.072;2023-05-10T06:18:23;1.80;;;1.27;;
11747;SDS011;5931;48.832;9.072;2023-05-10T06:20:49;2.10;;;1.57;;
11747;SDS011;5931;48.832;9.072;2023-05-10T06:23:15;1.80;;;1.50;;
11747;SDS011;5931;48.832;9.072;2023-05-10T06:25:40;2.03;;;1.80;;
11747;SDS011;5931;48.832;9.072;2023-05-10T06:28:06;3.13;;;1.83;;
11747;SDS011;5931;48.832;9.072;2023-05-10T06:30:32;1.77;;;1.50;;
11747;SDS011;5931;48.832;9.072;2023-05-10T06:32:58;2.00;;;1.60;;
11747;SDS011;5931;48.832;9.072;2023-05-10T06:35:23;1.70;;;1.57;;
11747;SDS011;5931;48.832;9.072;2023-05-10T06:37:49;1.60;;;1.50;;
11747;SDS011;5931;48.832;9.072;2023-05-10T06:40:15;2.03;;;1.70;;
11747;SDS011;5931;48.832;9.072;2023-05-10T06:42:41;2.53;;;1.90;;
11747;SDS011;5931;48.832;9.072;2023-05-10T06:45:07;1.77;;;1.20;;
11747;SDS011;5931;48.832;9.072;2023-05-10T06:47:34;2.30;;;1.40;;
11747;SDS011;5931;48.832;9.072;2023-05-10T06:49:59;1.60;;;1.33;;
11747;SDS011;5931;48.832;9.072;2023-05-10T06:52:25;1.40;;;1.30;;
11747;SDS011;5931;48.832;9.072;2023-05-10T06:54:51;2.20;;;1.73;;
11747;SDS011;5931;48.832;9.072;2023-05-10T06:57:16;1.83;;;1.60;;
11747;SDS011;5931;48.832;9.072;2023-05-10T06:59:43;2.80;;;1.67;;
11747;SDS011;5931;48.832;9.072;2023-05-10T07:02:08;1.80;;;1.60;;
11747;SDS011;5931;48.832;9.072;2023-05-10T07:04:34;1.87;;;1.77;;
11747;SDS011;5931;48.832;9.072;2023-05-10T07:07:00;1.90;;;1.50;;
11747;SDS011;5931;48.832;9.072;2023-05-10T07:09:25;1.80;;;1.70;;
11747;SDS011;5931;48.832;9.072;2023-05-10T07:11:51;1.43;;;1.27;;
11747;SDS011;5931;48.832;9.072;2023-05-10T07:14:17;2.10;;;1.60;;
11747;SDS011;5931;48.832;9.072;2023-05-10T07:16:42;2.80;;;1.43;;
11747;SDS011;5931;48.832;9.072;2023-05-10T07:19:09;1.50;;;1.40;;
11747;SDS011;5931;48.832;9.072;2023-05-10T07:21:34;1.90;;;1.30;;
11747;SDS011;5931;48.832;9.072;2023-05-10T07:24:01;1.83;;;1.30;;
11747;SDS011;5931;48.832;9.072;2023-05-10T07:26:26;2.07;;;1.40;;
11747;SDS011;5931;48.832;9.072;2023-05-10T07:28:52;3.63;;;1.83;;
11747;SDS011;5931;48.832;9.072;2023-05-10T07:31:18;1.60;;;1.50;;
11747;SDS011;5931;48.832;9.072;2023-05-10T07:33:43;1.63;;;1.20;;
11747;SDS011;5931;48.832;9.072;2023-05-10T07:36:09;2.23;;;1.60;;
11747;SDS011;5931;48.832;9.072;2023-05-10T07:38:34;1.80;;;1.40;;
11747;SDS011;5931;48.832;9.072;2023-05-10T07:41:00;1.63;;;1.33;;
11747;SDS011;5931;48.832;9.072;2023-05-10T07:43:26;1.80;;;1.30;;
11747;SDS011;5931;48.832;9.072;2023-05-10T07:45:52;2.20;;;1.60;;
11747;SDS011;5931;48.832;9.072;2023-05-10T07:48:17;1.33;;;1.23;;
11747;SDS011;5931;48.832;9.072;2023-05-10T07:50:43;1.50;;;1.20;;
11747;SDS011;5931;48.832;9.072;2023-05-10T07:53:09;1.87;;;1.30;;
11747;SDS011;5931;48.832;9.072;2023-05-10T07:55:34;1.70;;;1.60;;
11747;SDS011;5931;48.832;9.072;2023-05-10T07:58:00;1.40;;;1.20;;
11747;SDS011;5931;48.832;9.072;2023-05-10T08:00:26;1.37;;;1.20;;
11747;SDS011;5931;48.832;9.072;2023-05-10T08:02:51;1.80;;;1.27;;
11747;SDS011;5931;48.832;9.072;2023-05-10T08:05:18;1.20;;;1.00;;
11747;SDS011;5931;48.832;9.072;2023-05-10T08:07:43;1.20;;;1.00;;
11747;SDS011;5931;48.832;9.072;2023-05-10T08:10:10;1.80;;;1.00;;
11747;SDS011;5931;48.832;9.072;2023-05-10T08:12:36;1.20;;;1.00;;
11747;SDS011;5931;48.832;9.072;2023-05-10T08:15:02;1.40;;;1.03;;
11747;SDS011;5931;48.832;9.072;2023-05-10T08:17:28;1.20;;;1.10;;
11747;SDS011;5931;48.832;9.072;2023-05-10T08:19:54;1.43;;;1.00;;
11747;SDS011;5931;48.832;9.072;2023-05-10T08:22:20;1.10;;;0.90;;
11747;SDS011;5931;48.832;9.072;2023-05-10T08:24:45;1.10;;;1.00;;
11747;SDS011;5931;48.832;9.072;2023-05-10T08:27:11;1.70;;;1.10;;
11747;SDS011;5931;48.832;9.072;2023-05-10T08:29:37;1.20;;;1.10;;
11747;SDS011;5931;48.832;9.072;2023-05-10T08:32:03;1.20;;;1.00;;
11747;SDS011;5931;48.832;9.072;2023-05-10T08:34:28;1.17;;;0.90;;
11747;SDS011;5931;48.832;9.072;2023-05-10T08:36:56;1.67;;;1.10;;
11747;SDS011;5931;48.832;9.072;2023-05-10T08:39:22;1.40;;;1.10;;
11747;SDS011;5931;48.832;9.072;2023-05-10T08:41:48;1.20;;;1.00;;
11747;SDS011;5931;48.832;9.072;2023-05-10T08:44:18;1.20;;;0.97;;
11747;SDS011;5931;48.832;9.072;2023-05-10T08:46:46;2.70;;;1.20;;
11747;SDS011;5931;48.832;9.072;2023-05-10T08:49:16;1.10;;;1.00;;
11747;SDS011;5931;48.832;9.072;2023-05-10T08:51:44;1.60;;;1.20;;
11747;SDS011;5931;48.832;9.072;2023-05-10T08:54:15;1.40;;;1.00;;
11747;SDS011;5931;48.832;9.072;2023-05-10T08:56:41;1.60;;;1.20;;
11747;SDS011;5931;48.832;9.072;2023-05-10T08:59:06;1.20;;;0.90;;
11747;SDS011;5931;48.832;9.072;2023-05-10T09:01:32;1.33;;;0.90;;
11747;SDS011;5931;48.832;9.072;2023-05-10T09:04:01;1.97;;;0.90;;
11747;SDS011;5931;48.832;9.072;2023-05-10T09:06:27;1.10;;;1.00;;
11747;SDS011;5931;48.832;9.072;2023-05-10T09:08:54;1.97;;;1.40;;
11747;SDS011;5931;48.832;9.072;2023-05-10T09:11:20;4.80;;;1.10;;
11747;SDS011;5931;48.832;9.072;2023-05-10T09:13:47;1.20;;;1.10;;
11747;SDS011;5931;48.832;9.072;2023-05-10T09:16:15;1.73;;;1.47;;
11747;SDS011;5931;48.832;9.072;2023-05-10T09:18:41;1.20;;;1.00;;
11747;SDS011;5931;48.832;9.072;2023-05-10T09:21:06;1.97;;;1.00;;
11747;SDS011;5931;48.832;9.072;2023-05-10T09:23:33;1.60;;;0.90;;
11747;SDS011;5931;48.832;9.072;2023-05-10T09:26:02;1.10;;;0.90;;
11747;SDS011;5931;48.832;9.072;2023-05-10T09:29:12;1.43;;;1.10;;
11747;SDS011;5931;48.832;9.072;2023-05-10T09:31:20;1.10;;;1.00;;
11747;SDS011;5931;48.832;9.072;2023-05-10T09:33:47;1.20;;;1.00;;
11747;SDS011;5931;48.832;9.072;2023-05-10T09:36:14;1.03;;;0.90;;
11747;SDS011;5931;48.832;9.072;2023-05-10T09:38:51;1.60;;;1.00;;
11747;SDS011;5931;48.832;9.072;2023-05-10T09:41:23;1.20;;;1.10;;
11747;SDS011;5931;48.832;9.072;2023-05-10T09:43:50;1.20;;;0.90;;
11747;SDS011;5931;48.832;9.072;2023-05-10T09:46:21;1.20;;;1.00;;
11747;SDS011;5931;48.832;9.072;2023-05-10T09:48:47;1.10;;;1.00;;
11747;SDS011;5931;48.832;9.072;2023-05-10T09:51:20;1.50;;;1.20;;
11747;SDS011;5931;48.832;9.072;2023-05-10T09:53:47;1.20;;;0.90;;
11747;SDS011;5931;48.832;9.072;2023-05-10T09:56:13;1.10;;;1.00;;
11747;SDS011;5931;48.832;9.072;2023-05-10T09:59:02;1.30;;;1.10;;
11747;SDS011;5931;48.832;9.072;2023-05-10T10:01:28;1.63;;;1.27;;
11747;SDS011;5931;48.832;9.072;2023-05-10T10:03:55;1.20;;;1.10;;
11747;SDS011;5931;48.832;9.072;2023-05-10T10:06:22;1.20;;;0.90;;
11747;SDS011;5931;48.832;9.072;2023-05-10T10:08:48;1.03;;;0.90;;
11747;SDS011;5931;48.832;9.072;2023-05-10T10:11:15;1.63;;;1.30;;
11747;SDS011;5931;48.832;9.072;2023-05-10T10:13:41;1.20;;;1.10;;
11747;SDS011;5931;48.832;9.072;2023-05-10T10:16:07;1.20;;;1.00;;
11747;SDS011;5931;48.832;9.072;2023-05-10T10:18:35;1.70;;;1.00;;
11747;SDS011;5931;48.832;9.072;2023-05-10T10:21:06;4.00;;;1.50;;
11747;SDS011;5931;48.832;9.072;2023-05-10T10:23:34;1.80;;;1.13;;
11747;SDS011;5931;48.832;9.072;2023-05-10T10:26:00;2.03;;;1.13;;
11747;SDS011;5931;48.832;9.072;2023-05-10T10:28:40;2.20;;;1.30;;
11747;SDS011;5931;48.832;9.072;2023-05-10T10:31:24;1.87;;;1.33;;
11747;SDS011;5931;48.832;9.072;2023-05-10T10:33:56;1.40;;;1.03;;
11747;SDS011;5931;48.832;9.072;2023-05-10T10:36:27;1.50;;;1.27;;
11747;SDS011;5931;48.832;9.072;2023-05-10T10:38:59;1.70;;;1.03;;
11747;SDS011;5931;48.832;9.072;2023-05-10T10:41:27;1.20;;;1.07;;
11747;SDS011;5931;48.832;9.072;2023-05-10T10:47:02;1.20;;;1.00;;
11747;SDS011;5931;48.832;9.072;2023-05-10T10:49:52;1.40;;;1.17;;
11747;SDS011;5931;48.832;9.072;2023-05-10T10:52:37;2.70;;;0.90;;
11747;SDS011;5931;48.832;9.072;2023-05-10T10:57:45;1.03;;;0.90;;
11747;SDS011;5931;48.832;9.072;2023-05-10T11:00:17;1.43;;;1.00;;
11747;SDS011;5931;48.832;9.072;2023-05-10T11:08:00;1.20;;;1.00;;
11747;SDS011;5931;48.832;9.072;2023-05-10T11:10:36;1.20;;;1.10;;
11747;SDS011;5931;48.832;9.072;2023-05-10T11:13:02;1.27;;;1.10;;
11747;SDS011;5931;48.832;9.072;2023-05-10T11:15:39;1.10;;;1.00;;
11747;SDS011;5931;48.832;9.072;2023-05-10T11:18:17;1.57;;;1.30;;
11747;SDS011;5931;48.832;9.072;2023-05-10T11:20:50;1.60;;;1.03;;
11747;SDS011;5931;48.832;9.072;2023-05-10T11:23:17;1.60;;;1.40;;
11747;SDS011;5931;48.832;9.072;2023-05-10T11:25:45;1.30;;;1.03;;
11747;SDS011;5931;48.832;9.072;2023-05-10T11:28:11;1.10;;;0.97;;
11747;SDS011;5931;48.832;9.072;2023-05-10T11:30:38;1.30;;;1.10;;
11747;SDS011;5931;48.832;9.072;2023-05-10T11:33:05;1.03;;;0.90;;
11747;SDS011;5931;48.832;9.072;2023-05-10T11:35:36;1.20;;;1.10;;
11747;SDS011;5931;48.832;9.072;2023-05-10T11:38:09;1.20;;;1.00;;
11747;SDS011;5931;48.832;9.072;2023-05-10T11:40:37;1.50;;;1.13;;
11747;SDS011;5931;48.832;9.072;2023-05-10T11:43:03;1.40;;;1.30;;
11747;SDS011;5931;48.832;9.072;2023-05-10T11:45:33;1.90;;;1.30;;
11747;SDS011;5931;48.832;9.072;2023-05-10T11:48:00;1.33;;;1.00;;
11747;SDS011;5931;48.832;9.072;2023-05-10T11:50:26;1.67;;;1.20;;
11747;SDS011;5931;48.832;9.072;2023-05-10T11:52:52;2.07;;;1.20;;
11747;SDS011;5931;48.832;9.072;2023-05-10T11:55:19;1.20;;;0.90;;
11747;SDS011;5931;48.832;9.072;2023-05-10T11:57:45;1.87;;;1.33;;
11747;SDS011;5931;48.832;9.072;2023-05-10T12:00:14;1.97;;;1.10;;
11747;SDS011;5931;48.832;9.072;2023-05-10T12:02:41;2.03;;;1.07;;
11747;SDS011;5931;48.832;9.072;2023-05-10T12:05:07;6.60;;;1.47;;
11747;SDS011;5931;48.832;9.072;2023-05-10T12:07:33;1.60;;;1.10;;
11747;SDS011;5931;48.832;9.072;2023-05-10T12:10:06;3.53;;;1.40;;
11747;SDS011;5931;48.832;9.072;2023-05-10T12:12:37;5.43;;;1.23;;
11747;SDS011;5931;48.832;9.072;2023-05-10T12:15:05;1.27;;;1.17;;
11747;SDS011;5931;48.832;9.072;2023-05-10T12:17:37;2.17;;;1.40;;
11747;SDS011;5931;48.832;9.072;2023-05-10T12:20:13;2.37;;;1.30;;
11747;SDS011;5931;48.832;9.072;2023-05-10T12:22:40;1.57;;;1.07;;
11747;SDS011;5931;48.832;9.072;2023-05-10T12:25:09;1.10;;;1.00;;
11747;SDS011;5931;48.832;9.072;2023-05-10T12:27:35;1.50;;;1.40;;
11747;SDS011;5931;48.832;9.072;2023-05-10T12:30:01;1.20;;;1.00;;
11747;SDS011;5931;48.832;9.072;2023-05-10T12:33:28;3.37;;;1.13;;
11747;SDS011;5931;48.832;9.072;2023-05-10T12:35:25;1.73;;;1.17;;
11747;SDS011;5931;48.832;9.072;2023-05-10T12:37:51;2.30;;;1.10;;
11747;SDS011;5931;48.832;9.072;2023-05-10T12:40:17;1.30;;;1.10;;
11747;SDS011;5931;48.832;9.072;2023-05-10T12:42:42;1.60;;;1.20;;
11747;SDS011;5931;48.832;9.072;2023-05-10T12:45:10;1.40;;;1.30;;
11747;SDS011;5931;48.832;9.072;2023-05-10T12:47:36;1.20;;;1.10;;
11747;SDS011;5931;48.832;9.072;2023-05-10T12:50:03;1.50;;;1.23;;
11747;SDS011;5931;48.832;9.072;2023-05-10T12:52:29;1.43;;;1.30;;
11747;SDS011;5931;48.832;9.072;2023-05-10T12:54:57;4.03;;;1.30;;
11747;SDS011;5931;48.832;9.072;2023-05-10T12:57:24;1.60;;;1.50;;
11747;SDS011;5931;48.832;9.072;2023-05-10T12:59:50;1.53;;;1.27;;
11747;SDS011;5931;48.832;9.072;2023-05-10T13:02:15;2.30;;;1.80;;
11747;SDS011;5931;48.832;9.072;2023-05-10T13:04:43;2.13;;;1.50;;
11747;SDS011;5931;48.832;9.072;2023-05-10T13:07:09;1.50;;;1.30;;
11747;SDS011;5931;48.832;9.072;2023-05-10T13:09:35;1.20;;;1.10;;
11747;SDS011;5931;48.832;9.072;2023-05-10T13:12:01;1.50;;;1.20;;
11747;SDS011;5931;48.832;9.072;2023-05-10T13:14:27;1.20;;;1.00;;
11747;SDS011;5931;48.832;9.072;2023-05-10T13:16:53;1.70;;;1.10;;
11747;SDS011;5931;48.832;9.072;2023-05-10T13:19:19;1.40;;;1.07;;
11747;SDS011;5931;48.832;9.072;2023-05-10T13:21:45;1.47;;;1.20;;
11747;SDS011;5931;48.832;9.072;2023-05-10T13:24:11;1.60;;;1.20;;
11747;SDS011;5931;48.832;9.072;2023-05-10T13:26:39;3.03;;;1.10;;
11747;SDS011;5931;48.832;9.072;2023-05-10T13:29:05;2.60;;;1.10;;
11747;SDS011;5931;48.832;9.072;2023-05-10T13:31:31;2.00;;;1.20;;
11747;SDS011;5931;48.832;9.072;2023-05-10T13:33:57;1.93;;;1.20;;
11747;SDS011;5931;48.832;9.072;2023-05-10T13:36:23;1.73;;;1.30;;
11747;SDS011;5931;48.832;9.072;2023-05-10T13:38:48;1.67;;;1.53;;
11747;SDS011;5931;48.832;9.072;2023-05-10T13:41:14;1.57;;;1.33;;
11747;SDS011;5931;48.832;9.072;2023-05-10T13:43:40;1.50;;;1.20;;
11747;SDS011;5931;48.832;9.072;2023-05-10T13:46:05;1.30;;;1.20;;
11747;SDS011;5931;48.832;9.072;2023-05-10T13:48:31;2.50;;;1.37;;
11747;SDS011;5931;48.832;9.072;2023-05-10T13:50:56;1.40;;;1.30;;
11747;SDS011;5931;48.832;9.072;2023-05-10T13:53:22;1.33;;;1.23;;
11747;SDS011;5931;48.832;9.072;2023-05-10T13:55:48;1.30;;;1.20;;
11747;SDS011;5931;48.832;9.072;2023-05-10T13:58:14;1.60;;;1.20;;
11747;SDS011;5931;48.832;9.072;2023-05-10T14:00:40;1.53;;;1.20;;
11747;SDS011;5931;48.832;9.072;2023-05-10T14:03:05;1.57;;;1.20;;
11747;SDS011;5931;48.832;9.072;2023-05-10T14:05:32;1.10;;;1.00;;
11747;SDS011;5931;48.832;9.072;2023-05-10T14:07:57;1.30;;;1.20;;
11747;SDS011;5931;48.832;9.072;2023-05-10T14:10:23;2.30;;;1.30;;
11747;SDS011;5931;48.832;9.072;2023-05-10T14:12:49;2.73;;;1.20;;
11747;SDS011;5931;48.832;9.072;2023-05-10T14:15:15;4.43;;;1.50;;
11747;SDS011;5931;48.832;9.072;2023-05-10T14:17:40;1.20;;;1.10;;
11747;SDS011;5931;48.832;9.072;2023-05-10T14:20:15;1.77;;;1.23;;
11747;SDS011;5931;48.832;9.072;2023-05-10T14:22:47;1.83;;;1.10;;
11747;SDS011;5931;48.832;9.072;2023-05-10T14:25:13;4.50;;;1.20;;
11747;SDS011;5931;48.832;9.072;2023-05-10T14:27:39;1.50;;;1.20;;
11747;SDS011;5931;48.832;9.072;2023-05-10T14:30:05;1.30;;;1.10;;
11747;SDS011;5931;48.832;9.072;2023-05-10T14:32:31;1.33;;;1.23;;
11747;SDS011;5931;48.832;9.072;2023-05-10T14:34:59;4.60;;;1.30;;
11747;SDS011;5931;48.832;9.072;2023-05-10T14:37:25;1.60;;;1.20;;
11747;SDS011;5931;48.832;9.072;2023-05-10T14:39:51;1.70;;;1.10;;
11747;SDS011;5931;48.832;9.072;2023-05-10T14:42:17;1.50;;;1.30;;
11747;SDS011;5931;48.832;9.072;2023-05-10T14:44:43;1.33;;;1.07;;
11747;SDS011;5931;48.832;9.072;2023-05-10T14:47:08;1.30;;;0.90;;
11747;SDS011;5931;48.832;9.072;2023-05-10T14:49:34;1.50;;;1.40;;
11747;SDS011;5931;48.832;9.072;2023-05-10T14:51:59;1.70;;;1.13;;
11747;SDS011;5931;48.832;9.072;2023-05-10T14:54:25;1.30;;;1.17;;
11747;SDS011;5931;48.832;9.072;2023-05-10T14:56:51;2.17;;;1.30;;
11747;SDS011;5931;48.832;9.072;2023-05-10T14:59:17;1.93;;;1.10;;
11747;SDS011;5931;48.832;9.072;2023-05-10T15:01:42;2.50;;;1.30;;
11747;SDS011;5931;48.832;9.072;2023-05-10T15:04:08;1.10;;;1.00;;
11747;SDS011;5931;48.832;9.072;2023-05-10T15:06:34;1.30;;;1.20;;
11747;SDS011;5931;48.832;9.072;2023-05-10T15:09:00;1.20;;;1.10;;
11747;SDS011;5931;48.832;9.072;2023-05-10T15:11:28;1.23;;;1.13;;
11747;SDS011;5931;48.832;9.072;2023-05-10T15:13:54;2.80;;;1.30;;
11747;SDS011;5931;48.832;9.072;2023-05-10T15:16:20;1.10;;;0.93;;
11747;SDS011;5931;48.832;9.072;2023-05-10T15:18:45;1.97;;;1.30;;
11747;SDS011;5931;48.832;9.072;2023-05-10T15:21:11;1.80;;;1.43;;
11747;SDS011;5931;48.832;9.072;2023-05-10T15:23:37;1.20;;;1.10;;
11747;SDS011;5931;48.832;9.072;2023-05-10T15:26:03;2.07;;;1.47;;
11747;SDS011;5931;48.832;9.072;2023-05-10T15:28:28;1.53;;;1.10;;
11747;SDS011;5931;48.832;9.072;2023-05-10T15:30:55;1.40;;;1.20;;
11747;SDS011;5931;48.832;9.072;2023-05-10T15:33:21;1.50;;;1.10;;
11747;SDS011;5931;48.832;9.072;2023-05-10T15:35:47;1.93;;;1.00;;